Time;durP1;ratioP1;P1;durP2;ratioP2;P2;SDS_P1;SDS_P2;PMS_P1;PMS_P2;Temp;Humidity;BMP_temperature;BMP_pressure;BME280_temperature;BME280_humidity;BME280_pressure;Samples;Min_cycle;Max_cycle;Signal;HPM_P1;HPM_P2
2021/04/08 02:23:47;;;;;;;11.95;3.80;;;;;;;1.54;79.94;99931.13;115590;1200;23122;-54
2021/04/08 02:26:18;;;;;;;14.37;4.17;;;;;;;1.55;80.02;99935.41;115524;1200;23199;-51
2021/04/08 02:28:48;;;;;;;11.60;4.20;;;;;;;1.56;79.83;99925.19;115698;1199;23352;-53
2021/04/08 02:31:18;;;;;;;16.68;5.10;;;;;;;1.58;79.79;99931.03;115584;1200;23245;-55
2021/04/08 02:33:47;;;;;;;16.78;4.95;;;;;;;1.60;79.91;99936.89;115516;1199;23086;-52
2021/04/08 02:36:16;;;;;;;12.23;4.00;;;;;;;1.60;79.81;99931.39;115625;1200;23106;-54
2021/04/08 02:38:46;;;;;;;14.70;4.60;;;;;;;1.61;79.85;99935.70;115523;1199;23274;-53
2021/04/08 02:41:15;;;;;;;16.80;4.60;;;;;;;1.61;79.64;99938.45;115618;1200;23127;-54
2021/04/08 02:43:43;;;;;;;11.50;3.80;;;;;;;1.62;80.02;99942.73;115650;1200;23456;-56
2021/04/08 02:46:12;;;;;;;12.90;3.75;;;;;;;1.63;79.72;99936.05;115651;1199;26308;-55
2021/04/08 02:48:42;;;;;;;14.75;5.15;;;;;;;1.64;79.82;99943.09;115651;1200;23133;-52
2021/04/08 02:51:15;;;;;;;16.93;4.47;;;;;;;1.63;79.43;99942.31;115722;1199;24878;-53
2021/04/08 02:53:53;;;;;;;14.77;4.40;;;;;;;1.67;79.85;99946.97;115705;1200;23115;-56
2021/04/08 02:56:29;;;;;;;12.15;3.20;;;;;;;1.68;80.06;99949.29;115577;1199;24395;-56
2021/04/08 02:59:09;;;;;;;11.00;3.10;;;;;;;1.71;79.78;99953.17;115580;1198;23197;-52
2021/04/08 03:01:46;;;;;;;14.20;3.60;;;;;;;1.71;79.84;99950.42;115678;1203;23109;-56
2021/04/08 03:04:20;;;;;;;10.05;2.30;;;;;;;1.74;79.87;99966.09;115738;1200;23138;-53
2021/04/08 03:06:50;;;;;;;11.07;3.27;;;;;;;1.76;79.77;99969.20;115647;1199;23228;-54
2021/04/08 03:09:26;;;;;;;11.15;3.00;;;;;;;1.77;79.43;99963.25;115676;1200;23225;-52
2021/04/08 03:12:00;;;;;;;11.40;2.80;;;;;;;1.78;79.50;99981.30;115499;1199;23189;-52
2021/04/08 03:14:32;;;;;;;10.57;2.10;;;;;;;1.80;79.66;99978.91;115697;1200;23097;-52
2021/04/08 03:17:03;;;;;;;10.50;2.60;;;;;;;1.82;79.44;99989.51;115712;1199;23272;-53
2021/04/08 03:19:32;;;;;;;;;;;;;;;1.83;79.20;99988.30;115694;1204;23244;-56
2021/04/08 03:22:02;;;;;;;13.95;2.80;;;;;;;1.84;79.10;99990.64;115642;1199;21606;-56
2021/04/08 03:24:32;;;;;;;;;;;;;;;1.85;79.06;99983.92;115753;1204;23109;-53
2021/04/08 03:27:06;;;;;;;9.70;2.40;;;;;;;1.85;79.19;99980.38;115582;1200;21703;-55
2021/04/08 03:29:39;;;;;;;12.50;2.70;;;;;;;1.86;78.94;99998.47;115703;1198;23327;-55
2021/04/08 03:32:09;;;;;;;15.10;2.50;;;;;;;1.86;78.72;99998.47;115736;1199;23247;-57
2021/04/08 03:34:40;;;;;;;11.00;1.97;;;;;;;1.87;78.89;100005.50;115708;1199;23081;-57
2021/04/08 03:37:09;;;;;;;10.55;1.95;;;;;;;1.86;78.50;100010.25;115721;1200;23099;-53
2021/04/08 03:39:39;;;;;;;12.00;2.20;;;;;;;1.85;78.59;100011.44;115618;1199;23078;-53
2021/04/08 03:42:11;;;;;;;10.53;1.67;;;;;;;1.84;78.52;100012.66;115624;1198;23173;-54
2021/04/08 03:44:41;;;;;;;9.40;2.10;;;;;;;1.84;78.57;100020.13;115550;1200;23128;-53
2021/04/08 03:47:13;;;;;;;9.67;2.23;;;;;;;1.84;78.29;100020.13;115675;1199;23254;-55
2021/04/08 03:49:43;;;;;;;11.07;2.00;;;;;;;1.84;78.55;100020.91;115619;1199;26297;-54
2021/04/08 03:52:12;;;;;;;11.90;2.43;;;;;;;1.84;78.24;100031.92;115677;1200;23236;-56
2021/04/08 03:54:44;;;;;;;12.43;1.67;;;;;;;1.83;78.46;100035.86;115673;1200;26355;-55
2021/04/08 03:57:16;;;;;;;12.60;1.90;;;;;;;1.82;78.24;100034.30;115592;1197;23189;-57
2021/04/08 03:59:46;;;;;;;10.00;1.40;;;;;;;1.82;78.13;100042.55;115635;1200;27245;-53
2021/04/08 04:02:17;;;;;;;11.20;1.55;;;;;;;1.82;78.03;100041.80;115671;1200;23253;-56
2021/04/08 04:04:47;;;;;;;13.45;1.50;;;;;;;1.81;77.68;100052.03;115617;1199;23077;-53
2021/04/08 04:07:16;;;;;;;9.93;1.73;;;;;;;1.82;77.74;100050.06;115592;1198;23084;-54
2021/04/08 04:09:45;;;;;;;8.00;1.13;;;;;;;1.80;77.65;100064.22;115684;1200;23159;-58
2021/04/08 04:12:15;;;;;;;10.75;1.65;;;;;;;1.80;77.39;100068.97;115401;1199;23115;-55
2021/04/08 04:14:46;;;;;;;10.27;1.93;;;;;;;1.80;77.24;100079.98;115781;1200;23109;-54
2021/04/08 04:17:24;;;;;;;;;;;;;;;1.78;77.41;100065.88;115584;1204;25709;-55
2021/04/08 04:19:54;;;;;;;11.60;1.30;;;;;;;1.76;77.35;100080.03;115495;1201;21630;-62
2021/04/08 04:22:24;;;;;;;9.23;1.70;;;;;;;1.75;77.27;100081.25;115554;1200;23188;-57
2021/04/08 04:24:53;;;;;;;9.00;1.40;;;;;;;1.74;77.38;100082.44;115504;1200;23141;-56
2021/04/08 04:27:22;;;;;;;15.05;2.25;;;;;;;1.74;77.55;100079.68;115566;1199;23118;-53
2021/04/08 04:29:51;;;;;;;8.85;1.55;;;;;;;1.75;77.34;100085.97;115522;1200;27438;-58
2021/04/08 04:32:19;;;;;;;15.50;2.50;;;;;;;1.74;77.69;100082.44;115530;1200;23180;-54
2021/04/08 04:34:49;;;;;;;14.50;1.80;;;;;;;1.73;77.41;100086.40;115527;1200;23173;-55
2021/04/08 04:37:18;;;;;;;7.25;1.50;;;;;;;1.73;77.43;100085.61;115552;1200;23115;-58
2021/04/08 04:39:47;;;;;;;10.65;1.85;;;;;;;1.73;77.56;100091.91;115684;1199;27438;-55
2021/04/08 04:42:16;;;;;;;11.05;1.80;;;;;;;1.72;77.52;100095.84;115593;1199;24399;-56
2021/04/08 04:44:45;;;;;;;13.40;2.30;;;;;;;1.73;77.64;100091.91;115649;1200;23129;-56
2021/04/08 04:47:13;;;;;;;12.90;1.90;;;;;;;1.73;77.57;100099.38;115490;1200;23393;-55
2021/04/08 04:49:42;;;;;;;14.40;2.20;;;;;;;1.74;77.68;100111.95;115511;1200;26700;-57
2021/04/08 04:52:11;;;;;;;7.53;1.80;;;;;;;1.75;77.66;100108.77;115571;1199;23247;-55
2021/04/08 04:54:40;;;;;;;12.90;2.20;;;;;;;1.75;77.38;100114.27;115734;1198;26361;-54
2021/04/08 04:57:10;;;;;;;13.10;1.80;;;;;;;1.75;77.54;100111.52;115539;1200;23107;-57
2021/04/08 04:59:39;;;;;;;11.95;2.30;;;;;;;1.77;77.53;100116.59;115762;1200;23135;-55
2021/04/08 05:02:10;;;;;;;16.90;2.90;;;;;;;1.77;77.28;100111.88;115652;1200;24603;-55
2021/04/08 05:04:39;;;;;;;8.83;2.07;;;;;;;1.78;77.18;100118.16;115781;1198;23115;-56
2021/04/08 05:07:09;;;;;;;12.67;2.10;;;;;;;1.79;77.39;100122.45;115903;1202;23103;-54
2021/04/08 05:09:38;;;;;;;13.10;2.35;;;;;;;1.78;77.62;100120.91;115750;1199;24036;-55
2021/04/08 05:12:09;;;;;;;10.00;2.35;;;;;;;1.78;77.74;100129.92;116523;1199;23119;-56
2021/04/08 05:14:36;;;;;;;;;;;;;;;1.78;77.94;100120.91;115812;1200;24532;-55
2021/04/08 05:17:05;;;;;;;14.65;3.00;;;;;;;1.77;77.87;100136.64;115622;1199;24353;-58
2021/04/08 05:19:34;;;;;;;13.15;2.65;;;;;;;1.78;77.86;100140.18;115450;1200;23109;-54
2021/04/08 05:22:03;;;;;;;15.75;2.10;;;;;;;1.78;77.73;100135.42;115552;1198;23236;-57
2021/04/08 05:24:32;;;;;;;12.25;2.05;;;;;;;1.79;77.55;100142.50;115525;1200;23136;-56
2021/04/08 05:27:00;;;;;;;16.07;2.17;;;;;;;1.81;77.63;100137.35;115582;1199;23080;-54
2021/04/08 05:29:30;;;;;;;14.80;2.00;;;;;;;1.83;77.41;100145.96;115616;1199;27467;-56
2021/04/08 05:31:59;;;;;;;12.18;1.38;;;;;;;1.87;76.98;100152.17;115696;1200;23103;-57
2021/04/08 05:34:28;;;;;;;13.65;1.55;;;;;;;1.90;77.03;100161.57;115760;1198;23193;-53
2021/04/08 05:36:57;;;;;;;12.00;1.70;;;;;;;1.93;76.72;100158.74;115273;1200;26072;-56
2021/04/08 05:39:26;;;;;;;12.70;1.50;;;;;;;1.96;76.98;100157.13;115546;1202;23148;-56
2021/04/08 05:41:55;;;;;;;10.90;1.40;;;;;;;1.98;77.06;100166.52;115686;1200;23113;-55
2021/04/08 05:44:24;;;;;;;11.35;1.30;;;;;;;2.03;76.51;100176.27;115527;1199;23113;-56
2021/04/08 05:46:53;;;;;;;10.50;1.60;;;;;;;2.05;76.73;100174.63;115666;1199;27208;-55
2021/04/08 05:49:23;;;;;;;11.13;1.50;;;;;;;2.09;76.16;100180.84;115718;1199;26409;-54
2021/04/08 05:51:52;;;;;;;11.40;1.87;;;;;;;2.11;76.01;100177.69;115440;1200;23111;-58
2021/04/08 05:54:20;;;;;;;12.33;1.83;;;;;;;2.12;75.84;100191.03;114869;1200;23264;-56
2021/04/08 05:56:49;;;;;;;14.55;1.55;;;;;;;2.14;75.50;100190.59;115294;1199;23093;-58
2021/04/08 05:59:18;;;;;;;10.90;1.83;;;;;;;2.14;75.59;100191.38;115425;1202;23272;-56
2021/04/08 06:01:47;;;;;;;9.40;1.70;;;;;;;2.16;75.50;100191.73;115443;1200;23119;-56
2021/04/08 06:04:16;;;;;;;12.70;1.70;;;;;;;2.18;75.43;100203.10;115405;1200;23098;-55
2021/04/08 06:06:45;;;;;;;9.70;1.30;;;;;;;2.20;75.03;100211.72;115489;1200;23116;-56
2021/04/08 06:09:14;;;;;;;16.93;2.40;;;;;;;2.22;75.63;100203.80;115524;1199;23339;-53
2021/04/08 06:11:43;;;;;;;10.40;1.60;;;;;;;2.26;75.11;100211.98;115440;1199;27229;-54
2021/04/08 06:14:13;;;;;;;14.50;1.73;;;;;;;2.29;74.72;100220.20;115342;1199;23142;-53
2021/04/08 06:16:42;;;;;;;9.80;1.70;;;;;;;2.32;74.50;100227.61;115723;1199;23114;-55
2021/04/08 06:19:12;;;;;;;15.40;1.83;;;;;;;2.34;74.74;100225.20;115630;1200;23098;-56
2021/04/08 06:21:41;;;;;;;7.03;1.20;;;;;;;2.37;74.69;100229.88;115587;1200;27313;-55
2021/04/08 06:24:11;;;;;;;8.50;1.50;;;;;;;2.39;74.44;100243.23;115568;1199;25075;-56
2021/04/08 06:26:40;;;;;;;11.73;2.47;;;;;;;2.41;74.71;100230.59;115665;1199;26251;-57
2021/04/08 06:29:09;;;;;;;12.07;2.10;;;;;;;2.42;74.77;100234.13;115491;1199;23126;-55
2021/04/08 06:31:38;;;;;;;12.05;2.25;;;;;;;2.45;74.54;100236.02;115469;1200;23164;-55
2021/04/08 06:34:07;;;;;;;11.40;2.20;;;;;;;2.50;74.89;100232.78;115276;1199;26076;-55
2021/04/08 06:36:36;;;;;;;10.70;1.80;;;;;;;2.55;74.91;100234.23;115212;1200;27885;-58
2021/04/08 06:39:06;;;;;;;15.13;2.40;;;;;;;2.58;74.54;100239.70;114970;1198;26367;-55
2021/04/08 06:41:38;;;;;;;9.98;2.35;;;;;;;2.62;74.38;100256.16;115410;1200;23134;-57
2021/04/08 06:44:09;;;;;;;13.60;2.13;;;;;;;2.62;73.86;100250.64;115399;1198;23172;-57
2021/04/08 06:46:40;;;;;;;13.03;2.40;;;;;;;2.63;74.29;100260.48;115437;1198;23119;-56
2021/04/08 06:49:29;;;;;;;13.55;2.30;;;;;;;2.63;73.90;100260.48;115337;1200;23245;-57
2021/04/08 06:51:59;;;;;;;19.05;3.05;;;;;;;2.60;74.08;100262.09;115402;1200;23167;-57
2021/04/08 06:54:29;;;;;;;10.08;2.08;;;;;;;2.57;73.80;100276.71;115440;1200;23568;-58
2021/04/08 06:56:59;;;;;;;13.38;2.25;;;;;;;2.58;74.32;100280.25;115358;1200;23225;-57
2021/04/08 06:59:28;;;;;;;17.80;3.93;;;;;;;2.59;74.53;100279.82;115577;1202;24231;-58
2021/04/08 07:01:58;;;;;;;13.65;3.00;;;;;;;2.58;74.18;100291.27;115530;1199;23205;-54
2021/04/08 07:04:32;;;;;;;14.03;2.20;;;;;;;2.57;74.37;100289.70;115620;1199;23112;-58
2021/04/08 07:07:04;;;;;;;10.63;2.33;;;;;;;2.55;74.27;100292.11;115321;1200;23237;-56
2021/04/08 07:09:34;;;;;;;11.40;2.20;;;;;;;2.53;74.50;100308.29;115481;1200;23109;-56
2021/04/08 07:12:04;;;;;;;12.10;2.55;;;;;;;2.51;74.37;100303.20;115661;1200;23099;-58
2021/04/08 07:14:32;;;;;;;;;;;;;;;2.52;74.52;100306.75;115579;1204;27444;-59
2021/04/08 07:17:02;;;;;;;10.50;2.20;;;;;;;2.54;74.52;100305.13;115367;1199;21735;-54
2021/04/08 07:19:31;;;;;;;12.60;2.50;;;;;;;2.59;74.75;100303.87;115419;1202;23258;-56
2021/04/08 07:22:01;;;;;;;16.30;3.00;;;;;;;2.64;74.73;100315.17;115560;1200;27431;-57
2021/04/08 07:24:30;;;;;;;19.95;3.40;;;;;;;2.68;74.80;100320.61;115371;1200;23122;-56
2021/04/08 07:27:03;;;;;;;14.20;3.10;;;;;;;2.71;74.79;100328.80;115655;1198;26000;-56
2021/04/08 07:29:52;;;;;;;17.70;2.30;;;;;;;2.71;74.15;100317.02;115484;1200;23275;-54
2021/04/08 07:32:30;;;;;;;11.83;2.60;;;;;;;2.71;74.32;100344.58;115531;1202;23196;-53
2021/04/08 07:35:01;;;;;;;14.23;2.93;;;;;;;2.71;74.51;100326.04;115709;1197;23381;-55
2021/04/08 07:37:33;;;;;;;14.13;2.33;;;;;;;2.72;74.04;100333.13;115369;1202;23251;-57
2021/04/08 07:40:13;;;;;;;11.43;2.93;;;;;;;2.73;74.11;100336.66;115447;1199;23087;-61
2021/04/08 07:42:42;;;;;;;11.83;1.60;;;;;;;2.78;74.27;100347.97;115557;1199;24770;-60
2021/04/08 07:45:22;;;;;;;7.50;2.10;;;;;;;2.84;74.03;100342.73;115376;1199;23189;-55
2021/04/08 07:48:00;;;;;;;13.48;2.53;;;;;;;2.88;73.54;100344.22;115283;1200;26011;-58
2021/04/08 07:50:31;;;;;;;12.60;2.27;;;;;;;2.92;73.94;100363.44;115463;1200;23110;-56
2021/04/08 07:53:01;;;;;;;11.80;1.70;;;;;;;2.91;73.71;100362.69;115877;1199;24747;-54
2021/04/08 07:55:37;;;;;;;9.05;2.43;;;;;;;2.92;73.66;100379.98;115302;1200;24113;-58
2021/04/08 07:58:08;;;;;;;17.20;2.50;;;;;;;2.91;73.63;100379.23;116299;1200;23124;-54
2021/04/08 08:00:40;;;;;;;12.80;2.50;;;;;;;2.93;73.81;100379.58;115240;1200;23114;-56
2021/04/08 08:03:23;;;;;;;12.97;2.13;;;;;;;2.97;73.51;100387.78;115511;1199;26293;-54
2021/04/08 08:05:57;;;;;;;14.57;2.47;;;;;;;3.02;73.68;100395.57;115410;1200;23122;-56
2021/04/08 08:08:36;;;;;;;14.70;1.95;;;;;;;3.07;73.47;100397.81;115425;1200;23122;-55
2021/04/08 08:11:07;;;;;;;9.15;1.60;;;;;;;3.11;72.68;100399.31;117661;1199;23332;-56
2021/04/08 08:13:38;;;;;;;12.57;1.50;;;;;;;3.21;73.29;100400.28;115474;1201;27033;-55
2021/04/08 08:16:08;;;;;;;9.80;1.53;;;;;;;3.31;72.76;100402.05;115757;1200;23103;-56
2021/04/08 08:18:39;;;;;;;13.95;1.60;;;;;;;3.39;72.34;100400.72;115331;1199;26992;-56
2021/04/08 08:21:10;;;;;;;10.13;1.50;;;;;;;3.46;72.00;100408.83;115529;1198;23703;-57
2021/04/08 08:23:43;;;;;;;14.60;1.80;;;;;;;3.56;72.37;100418.10;115514;1198;23207;-56
2021/04/08 08:26:34;;;;;;;11.20;1.20;;;;;;;3.60;71.00;100414.03;115387;1200;23541;-58
2021/04/08 08:29:13;;;;;;;13.00;1.65;;;;;;;3.67;71.17;100424.94;115325;1199;23130;-57
2021/04/08 08:31:46;;;;;;;7.95;1.00;;;;;;;3.69;70.35;100418.98;115428;1200;26054;-57
2021/04/08 08:34:18;;;;;;;6.60;1.17;;;;;;;3.70;70.29;100434.36;115636;1200;29248;-55
2021/04/08 08:36:49;;;;;;;8.13;1.23;;;;;;;3.73;70.45;100431.51;115446;1199;23205;-56
2021/04/08 08:39:20;;;;;;;10.90;1.17;;;;;;;3.78;70.23;100435.75;115563;1199;26718;-60
2021/04/08 08:41:50;;;;;;;8.20;1.10;;;;;;;3.83;70.25;100437.98;115674;1200;26329;-62
2021/04/08 08:44:21;;;;;;;9.00;1.15;;;;;;;3.86;70.07;100432.41;115770;1200;23215;-59
2021/04/08 08:46:58;;;;;;;7.20;1.17;;;;;;;3.89;70.68;100436.30;115831;1200;26220;-62
2021/04/08 08:49:33;;;;;;;9.30;1.20;;;;;;;3.90;70.01;100441.39;115549;1199;23102;-61
2021/04/08 08:52:02;;;;;;;7.90;1.40;;;;;;;3.88;70.59;100443.02;115890;1199;23180;-61
2021/04/08 08:54:34;;;;;;;8.95;1.45;;;;;;;3.85;69.86;100446.63;115538;1200;23316;-61
2021/04/08 08:57:05;;;;;;;12.95;1.40;;;;;;;3.83;70.05;100447.06;115474;1203;27310;-60
2021/04/08 08:59:36;;;;;;;10.20;1.20;;;;;;;3.83;70.48;100466.39;115601;1198;23186;-60
2021/04/08 09:02:07;;;;;;;12.15;1.75;;;;;;;3.81;69.70;100468.80;115654;1200;23154;-60
2021/04/08 09:04:37;;;;;;;12.90;1.87;;;;;;;3.76;69.39;100466.56;115609;1198;23138;-60
2021/04/08 09:07:09;;;;;;;12.60;1.90;;;;;;;3.71;70.31;100475.34;115634;1198;23258;-59
2021/04/08 09:09:46;;;;;;;12.97;1.60;;;;;;;3.71;69.66;100477.31;115553;1199;28169;-59
2021/04/08 09:12:20;;;;;;;9.57;1.90;;;;;;;3.71;69.95;100475.34;115621;1200;24392;-61
2021/04/08 09:14:51;;;;;;;12.60;1.80;;;;;;;3.73;70.10;100475.69;115667;1199;23202;-60
2021/04/08 09:17:42;;;;;;;16.85;1.80;;;;;;;3.78;70.40;100482.69;115581;1199;24752;-60
2021/04/08 09:20:15;;;;;;;7.25;1.20;;;;;;;3.86;70.15;100478.57;115494;1200;24053;-59
2021/04/08 09:22:56;;;;;;;8.33;1.50;;;;;;;3.91;70.58;100484.36;115436;1199;23097;-60
2021/04/08 09:25:31;;;;;;;9.20;1.40;;;;;;;3.98;70.58;100494.48;115426;1199;27329;-60
2021/04/08 09:28:04;;;;;;;8.03;1.17;;;;;;;3.92;70.32;100496.19;115545;1200;23123;-63
2021/04/08 09:30:52;;;;;;;9.00;1.35;;;;;;;3.78;70.69;100499.27;115689;1199;23459;-60
2021/04/08 09:34:00;;;;;;;16.80;1.50;;;;;;;3.61;70.92;100506.70;115563;1200;23116;-61
2021/04/08 09:36:43;;;;;;;11.30;1.50;;;;;;;3.49;71.49;100506.56;115617;1199;26619;-52
2021/04/08 09:39:26;;;;;;;8.70;1.70;;;;;;;3.48;71.61;100516.03;115328;1199;24740;-54
2021/04/08 09:42:01;;;;;;;9.73;1.60;;;;;;;3.51;71.41;100527.02;115529;1202;23100;-54
2021/04/08 09:44:31;;;;;;;8.75;1.40;;;;;;;3.55;71.69;100524.97;115483;1200;23107;-55
2021/04/08 09:47:02;;;;;;;9.30;1.50;;;;;;;3.59;71.35;100530.41;115398;1200;23328;-55
2021/04/08 09:49:48;;;;;;;9.60;1.43;;;;;;;3.61;71.27;100533.53;115618;1199;23138;-56
2021/04/08 09:52:18;;;;;;;11.15;1.60;;;;;;;3.61;71.40;100534.31;115527;1199;23102;-55
2021/04/08 09:54:54;;;;;;;11.85;1.50;;;;;;;3.59;71.34;100544.22;115503;1199;26400;-57
2021/04/08 09:57:43;;;;;;;10.10;1.40;;;;;;;3.55;70.71;100540.75;115565;1200;23123;-55
2021/04/08 10:00:16;;;;;;;8.50;1.60;;;;;;;3.54;71.32;100553.01;115463;1200;23115;-56
2021/04/08 10:02:59;;;;;;;7.75;1.10;;;;;;;3.51;71.20;100549.11;115759;1200;23136;-55
2021/04/08 10:05:33;;;;;;;8.35;1.20;;;;;;;3.50;71.02;100555.06;115503;1199;23164;-53
2021/04/08 10:08:05;;;;;;;9.13;1.27;;;;;;;3.52;71.00;100563.70;115468;1198;27460;-58
2021/04/08 10:10:43;;;;;;;8.90;1.30;;;;;;;3.53;70.94;100554.20;115528;1200;25001;-57
2021/04/08 10:13:20;;;;;;;11.33;1.70;;;;;;;3.57;71.18;100563.97;115519;1199;26345;-58
2021/04/08 10:15:53;;;;;;;8.05;1.25;;;;;;;3.64;70.68;100563.06;115523;1198;27274;-56
2021/04/08 10:18:24;;;;;;;10.33;1.50;;;;;;;3.67;70.80;100573.24;115539;1199;27336;-56
2021/04/08 10:20:55;;;;;;;9.77;1.60;;;;;;;3.71;70.77;100566.45;115432;1202;23122;-57
2021/04/08 10:23:37;;;;;;;8.90;1.43;;;;;;;3.74;70.32;100573.90;115581;1199;23117;-53
2021/04/08 10:26:08;;;;;;;9.60;1.40;;;;;;;3.74;69.85;100576.66;115317;1199;27242;-54
2021/04/08 10:28:40;;;;;;;10.30;1.40;;;;;;;3.72;70.40;100579.07;115464;1200;23109;-58
2021/04/08 10:31:25;;;;;;;10.60;1.90;;;;;;;3.72;70.42;100583.80;115363;1197;23103;-58
2021/04/08 10:33:55;;;;;;;8.07;1.50;;;;;;;3.73;70.52;100586.13;116972;1198;23092;-55
2021/04/08 10:36:29;;;;;;;7.83;1.38;;;;;;;3.77;70.39;100592.36;116761;1200;23111;-55
2021/04/08 10:39:08;;;;;;;7.70;1.53;;;;;;;3.79;70.55;100597.45;115562;1199;23114;-57
2021/04/08 10:41:39;;;;;;;9.90;1.60;;;;;;;3.78;70.69;100610.50;115363;1198;23122;-57
2021/04/08 10:44:23;;;;;;;13.40;2.10;;;;;;;3.72;71.31;100603.13;115367;1200;23126;-58
2021/04/08 10:46:55;;;;;;;8.20;1.65;;;;;;;3.63;71.03;100608.42;115465;1200;27572;-57
2021/04/08 10:49:45;;;;;;;7.97;1.97;;;;;;;3.59;71.64;100613.23;115396;1199;23144;-55
2021/04/08 10:52:18;;;;;;;10.93;2.07;;;;;;;3.54;71.60;100619.26;115266;1200;23121;-56
2021/04/08 10:54:52;;;;;;;13.10;1.80;;;;;;;3.50;71.43;100621.30;114923;1200;25991;-59
2021/04/08 10:57:22;;;;;;;12.90;2.00;;;;;;;3.48;71.77;100618.94;114722;1202;23259;-54
2021/04/08 10:59:52;;;;;;;8.97;1.57;;;;;;;3.48;71.85;100627.22;115255;1202;27319;-55
2021/04/08 11:02:24;;;;;;;15.50;2.20;;;;;;;3.51;72.29;100629.16;114917;1202;26188;-56
2021/04/08 11:04:54;;;;;;;15.00;2.35;;;;;;;3.61;72.60;100635.67;118667;1199;22784;-56
2021/04/08 11:07:25;;;;;;;13.95;2.30;;;;;;;3.70;72.72;100631.17;116218;1202;23185;-55
2021/04/08 11:09:56;;;;;;;11.30;2.05;;;;;;;3.80;72.00;100621.12;115626;1203;23142;-56
2021/04/08 11:12:26;;;;;;;14.88;1.75;;;;;;;3.89;72.41;100632.39;116296;1203;24925;-57
2021/04/08 11:14:57;;;;;;;15.85;2.03;;;;;;;3.91;71.60;100633.51;114973;1200;23163;-54
2021/04/08 11:17:28;;;;;;;11.80;2.20;;;;;;;3.91;71.36;100636.27;115283;1203;24758;-57
2021/04/08 11:19:58;;;;;;;11.90;1.80;;;;;;;3.80;71.76;100657.02;117356;1202;26213;-54
2021/04/08 11:22:29;;;;;;;13.05;1.60;;;;;;;3.68;71.92;100657.64;115189;1202;24916;-55
2021/04/08 11:25:00;;;;;;;12.47;2.37;;;;;;;3.57;72.10;100666.11;115213;1200;23226;-56
2021/04/08 11:27:33;;;;;;;16.30;2.00;;;;;;;3.51;72.33;100655.97;114964;1203;23118;-56
2021/04/08 11:30:03;;;;;;;15.10;2.40;;;;;;;3.53;73.05;100654.36;114883;1203;23266;-55
2021/04/08 11:32:42;;;;;;;14.05;1.75;;;;;;;3.57;72.78;100657.05;116926;1202;26194;-57
2021/04/08 11:35:24;;;;;;;16.50;2.90;;;;;;;3.67;73.50;100661.59;114871;1200;23093;-55
2021/04/08 11:38:05;;;;;;;11.85;2.70;;;;;;;3.77;72.84;100658.64;115046;1202;23109;-53
2021/04/08 11:40:36;;;;;;;11.00;2.00;;;;;;;3.90;73.27;100651.30;115127;1202;23098;-55
2021/04/08 11:43:29;;;;;;;9.97;2.23;;;;;;;4.01;73.24;100662.15;115223;1202;25648;-54
2021/04/08 11:46:00;;;;;;;17.15;2.40;;;;;;;4.14;72.68;100665.06;115121;1202;26213;-54
2021/04/08 11:48:44;;;;;;;15.07;2.63;;;;;;;4.23;72.26;100665.25;115114;1203;23129;-56
2021/04/08 11:51:14;;;;;;;16.50;2.00;;;;;;;4.28;71.80;100671.08;114811;1202;27246;-56
2021/04/08 11:53:44;;;;;;;14.93;2.57;;;;;;;4.34;72.29;100654.77;115132;1200;24791;-56
2021/04/08 11:56:28;;;;;;;15.18;2.23;;;;;;;4.44;71.69;100664.81;115133;1202;25978;-56
2021/04/08 11:59:12;;;;;;;12.10;2.03;;;;;;;4.55;71.58;100666.14;115137;1202;27377;-57
2021/04/08 12:01:42;;;;;;;16.95;1.95;;;;;;;4.62;70.83;100665.99;115136;1202;23179;-55
2021/04/08 12:04:17;;;;;;;15.17;1.80;;;;;;;4.69;71.04;100678.89;114919;1202;27163;-55
2021/04/08 12:06:48;;;;;;;11.60;2.23;;;;;;;4.75;70.93;100668.88;115050;1202;23154;-55
2021/04/08 12:09:17;;;;;;;9.47;1.73;;;;;;;4.78;70.78;100668.00;114833;1203;23244;-56
2021/04/08 12:11:51;;;;;;;10.77;1.60;;;;;;;4.79;70.79;100669.58;115199;1202;23132;-57
2021/04/08 12:14:21;;;;;;;16.70;2.70;;;;;;;4.79;70.27;100666.81;115319;1202;25972;-56
2021/04/08 12:17:06;;;;;;;11.53;2.10;;;;;;;4.78;70.31;100677.09;114970;1199;26273;-56
2021/04/08 12:19:37;;;;;;;14.15;2.25;;;;;;;4.77;69.33;100677.52;114703;1202;23145;-55
2021/04/08 12:22:09;;;;;;;19.55;1.60;;;;;;;4.74;68.96;100683.91;114657;1202;23151;-56
2021/04/08 12:24:40;;;;;;;11.07;1.20;;;;;;;4.72;68.95;100678.02;114841;1203;23126;-57
2021/04/08 12:27:18;;;;;;;8.53;1.10;;;;;;;4.72;68.81;100681.57;115142;1202;27356;-55
2021/04/08 12:29:50;;;;;;;7.35;1.10;;;;;;;4.72;68.53;100687.10;114868;1202;23115;-53
2021/04/08 12:32:28;;;;;;;5.97;0.80;;;;;;;4.74;67.26;100689.44;114626;1202;23125;-56
2021/04/08 12:34:57;;;;;;;7.60;1.10;;;;;;;4.77;67.82;100685.83;115055;1202;26002;-56
2021/04/08 12:37:28;;;;;;;10.70;1.33;;;;;;;4.82;67.73;100688.85;115142;1202;23092;-57
2021/04/08 12:39:57;;;;;;;7.45;1.00;;;;;;;4.88;68.01;100694.67;115462;1200;23137;-55
2021/04/08 12:42:26;;;;;;;11.80;1.20;;;;;;;4.91;67.40;100697.35;115195;1202;23141;-54
2021/04/08 12:44:57;;;;;;;4.90;0.93;;;;;;;4.91;66.49;100702.89;114916;1201;23099;-57
2021/04/08 12:47:27;;;;;;;10.90;1.60;;;;;;;4.90;67.76;100693.02;115189;1202;26130;-55
2021/04/08 12:49:57;;;;;;;7.10;0.87;;;;;;;4.92;67.85;100701.66;115981;1199;26223;-55
2021/04/08 12:52:26;;;;;;;4.97;0.90;;;;;;;4.97;65.49;100703.14;115136;1202;23236;-56
2021/04/08 12:54:55;;;;;;;12.90;1.40;;;;;;;5.01;66.76;100700.32;115107;1202;23244;-55
2021/04/08 12:57:24;;;;;;;9.60;1.00;;;;;;;5.04;66.20;100707.75;115124;1202;23108;-55
2021/04/08 12:59:53;;;;;;;6.27;1.13;;;;;;;5.07;66.38;100704.13;115045;1200;23243;-57
2021/04/08 13:02:22;;;;;;;8.27;1.00;;;;;;;5.07;65.11;100717.97;115638;1202;23122;-58
2021/04/08 13:04:52;;;;;;;5.50;0.80;;;;;;;5.03;65.25;100706.95;115166;1200;26242;-57
2021/04/08 13:07:23;;;;;;;5.60;1.20;;;;;;;4.97;65.80;100721.73;114908;1203;23217;-56
2021/04/08 13:09:52;;;;;;;8.60;1.20;;;;;;;4.91;66.07;100724.23;114989;1200;24327;-55
2021/04/08 13:12:23;;;;;;;7.00;0.93;;;;;;;4.88;65.92;100723.09;114852;1202;23140;-56
2021/04/08 13:14:53;;;;;;;6.30;0.90;;;;;;;4.86;66.47;100730.29;115134;1200;23138;-57
2021/04/08 13:17:28;;;;;;;8.40;1.60;;;;;;;4.82;66.83;100730.34;115104;1199;27724;-57
2021/04/08 13:19:58;;;;;;;14.00;1.17;;;;;;;4.82;66.92;100743.42;115096;1200;23143;-57
2021/04/08 13:22:28;;;;;;;10.35;1.00;;;;;;;4.81;67.05;100750.14;115057;1200;26006;-56
2021/04/08 13:24:57;;;;;;;7.60;1.03;;;;;;;4.77;67.13;100744.70;115100;1202;23098;-57
2021/04/08 13:27:26;;;;;;;7.77;1.00;;;;;;;4.75;67.29;100758.17;115083;1199;26319;-54
2021/04/08 13:29:55;;;;;;;11.67;1.00;;;;;;;4.71;67.21;100756.69;115291;1202;24915;-57
2021/04/08 13:32:24;;;;;;;5.55;0.70;;;;;;;4.65;67.00;100761.16;115300;1202;30157;-54
2021/04/08 13:34:54;;;;;;;10.30;0.90;;;;;;;4.60;67.32;100745.84;115115;1202;26920;-56
2021/04/08 13:37:25;;;;;;;6.20;0.83;;;;;;;4.60;67.52;100747.81;115248;1202;28194;-54
2021/04/08 13:39:57;;;;;;;10.43;1.10;;;;;;;4.67;67.80;100740.17;115126;1201;23112;-55
2021/04/08 13:42:26;;;;;;;7.60;1.00;;;;;;;4.76;67.75;100754.19;115090;1200;23122;-57
2021/04/08 13:44:56;;;;;;;12.30;1.70;;;;;;;4.86;68.02;100758.71;115105;1202;23108;-57
2021/04/08 13:47:25;;;;;;;10.93;1.10;;;;;;;4.95;67.35;100752.59;115054;1202;23091;-56
2021/04/08 13:49:54;;;;;;;10.50;1.27;;;;;;;5.02;67.41;100748.91;115227;1203;27336;-56
2021/04/08 13:52:24;;;;;;;5.93;1.00;;;;;;;5.09;66.79;100743.98;115122;1202;23242;-57
2021/04/08 13:54:53;;;;;;;10.67;1.50;;;;;;;5.16;66.32;100740.27;115251;1198;26051;-54
2021/04/08 13:57:22;;;;;;;7.93;1.07;;;;;;;5.23;66.68;100745.66;115029;1199;24771;-55
2021/04/08 13:59:51;;;;;;;10.35;1.50;;;;;;;5.31;66.22;100742.30;115006;1202;23289;-57
2021/04/08 14:02:20;;;;;;;6.25;1.00;;;;;;;5.41;66.15;100748.79;114950;1203;23128;-57
2021/04/08 14:04:48;;;;;;;5.85;1.00;;;;;;;5.53;65.86;100746.11;115196;1200;23098;-55
2021/04/08 14:07:17;;;;;;;5.50;0.80;;;;;;;5.65;65.40;100750.95;114982;1202;23100;-56